sensor_id;sensor_type;location;lat;lon;timestamp;pressure;altitude;pressure_sealevel;temperature;humidity
47260;BME280;32999;52.412;4.890;2024-03-25T00:01:34;100679.81;;;6.47;100.00
47260;BME280;32999;52.412;4.890;2024-03-25T00:07:06;100629.69;;;6.11;100.00
47260;BME280;32999;52.412;4.890;2024-03-25T00:12:08;100682.00;;;6.52;100.00
47260;BME280;32999;52.412;4.890;2024-03-25T00:17:10;100744.78;;;7.09;100.00
47260;BME280;32999;52.412;4.890;2024-03-25T00:22:16;100755.91;;;7.05;100.00
47260;BME280;32999;52.412;4.890;2024-03-25T00:27:21;100761.22;;;6.97;100.00
47260;BME280;32999;52.412;4.890;2024-03-25T00:32:23;100738.66;;;6.93;100.00
47260;BME280;32999;52.412;4.890;2024-03-25T00:37:45;100731.00;;;6.90;100.00
47260;BME280;32999;52.412;4.890;2024-03-25T00:42:51;100679.19;;;6.61;100.00
47260;BME280;32999;52.412;4.890;2024-03-25T00:48:10;100667.69;;;6.44;100.00
47260;BME280;32999;52.412;4.890;2024-03-25T00:53:17;100738.78;;;6.67;100.00
47260;BME280;32999;52.412;4.890;2024-03-25T00:58:24;100732.81;;;6.81;100.00
47260;BME280;32999;52.412;4.890;2024-03-25T01:04:05;100723.84;;;6.98;100.00
47260;BME280;32999;52.412;4.890;2024-03-25T01:09:27;100729.84;;;7.00;100.00
47260;BME280;32999;52.412;4.890;2024-03-25T01:51:33;100745.94;;;7.23;100.00
47260;BME280;32999;52.412;4.890;2024-03-25T01:56:47;100738.78;;;7.24;100.00
47260;BME280;32999;52.412;4.890;2024-03-25T02:02:40;100706.94;;;6.91;100.00
47260;BME280;32999;52.412;4.890;2024-03-25T02:07:43;100747.94;;;7.21;100.00
47260;BME280;32999;52.412;4.890;2024-03-25T02:50:16;100731.50;;;7.09;100.00
47260;BME280;32999;52.412;4.890;2024-03-25T03:26:47;100712.03;;;6.52;100.00
47260;BME280;32999;52.412;4.890;2024-03-25T03:45:32;100721.94;;;6.34;100.00
47260;BME280;32999;52.412;4.890;2024-03-25T04:07:50;100692.41;;;6.29;100.00
47260;BME280;32999;52.412;4.890;2024-03-25T04:13:29;100705.50;;;6.30;100.00
47260;BME280;32999;52.412;4.890;2024-03-25T04:26:12;100720.19;;;6.08;100.00
47260;BME280;32999;52.412;4.890;2024-03-25T04:37:03;100699.53;;;5.86;100.00
47260;BME280;32999;52.412;4.890;2024-03-25T04:42:22;100706.91;;;5.74;100.00
47260;BME280;32999;52.412;4.890;2024-03-25T04:47:34;100709.34;;;5.60;100.00
47260;BME280;32999;52.412;4.890;2024-03-25T04:59:41;100712.47;;;5.29;100.00
47260;BME280;32999;52.412;4.890;2024-03-25T05:04:46;100715.38;;;5.18;100.00
47260;BME280;32999;52.412;4.890;2024-03-25T05:09:50;100716.13;;;5.10;100.00
47260;BME280;32999;52.412;4.890;2024-03-25T05:14:55;100747.78;;;5.12;100.00
47260;BME280;32999;52.412;4.890;2024-03-25T06:14:16;100706.59;;;5.77;100.00
47260;BME280;32999;52.412;4.890;2024-03-25T07:02:17;100687.94;;;7.35;100.00
47260;BME280;32999;52.412;4.890;2024-03-25T07:07:49;100627.03;;;7.17;100.00
47260;BME280;32999;52.412;4.890;2024-03-25T07:12:51;100693.03;;;8.08;100.00
47260;BME280;32999;52.412;4.890;2024-03-25T07:17:54;100717.44;;;8.96;100.00
47260;BME280;32999;52.412;4.890;2024-03-25T07:23:15;100710.25;;;8.82;100.00
47260;BME280;32999;52.412;4.890;2024-03-25T07:28:27;100638.50;;;8.58;100.00
47260;BME280;32999;52.412;4.890;2024-03-25T07:39:46;100692.66;;;10.43;100.00
47260;BME280;32999;52.412;4.890;2024-03-25T07:45:05;100713.03;;;11.29;100.00
47260;BME280;32999;52.412;4.890;2024-03-25T07:50:09;100699.59;;;11.50;100.00
47260;BME280;32999;52.412;4.890;2024-03-25T07:55:21;100712.59;;;12.29;100.00
47260;BME280;32999;52.412;4.890;2024-03-25T08:00:37;100683.41;;;12.67;100.00
47260;BME280;32999;52.412;4.890;2024-03-25T08:05:51;100671.66;;;13.14;100.00
47260;BME280;32999;52.412;4.890;2024-03-25T08:16:51;100736.31;;;14.30;100.00
47260;BME280;32999;52.412;4.890;2024-03-25T08:22:05;100738.63;;;14.26;100.00
47260;BME280;32999;52.412;4.890;2024-03-25T08:27:13;100736.41;;;14.61;100.00
47260;BME280;32999;52.412;4.890;2024-03-25T08:32:25;100738.88;;;15.51;100.00
47260;BME280;32999;52.412;4.890;2024-03-25T08:38:00;100743.22;;;15.95;100.00
47260;BME280;32999;52.412;4.890;2024-03-25T08:43:14;100737.22;;;15.93;100.00
47260;BME280;32999;52.412;4.890;2024-03-25T08:48:39;100734.09;;;16.81;100.00
47260;BME280;32999;52.412;4.890;2024-03-25T08:53:59;100726.66;;;17.06;100.00
47260;BME280;32999;52.412;4.890;2024-03-25T08:59:34;100731.13;;;17.24;100.00
47260;BME280;32999;52.412;4.890;2024-03-25T09:04:45;100619.34;;;16.60;100.00
47260;BME280;32999;52.412;4.890;2024-03-25T09:09:54;100732.94;;;17.65;100.00
47260;BME280;32999;52.412;4.890;2024-03-25T09:21:16;100746.16;;;18.65;100.00
47260;BME280;32999;52.412;4.890;2024-03-25T09:32:01;100637.16;;;19.58;89.83
47260;BME280;32999;52.412;4.890;2024-03-25T09:37:15;100645.16;;;18.36;100.00
47260;BME280;32999;52.412;4.890;2024-03-25T09:42:32;100671.13;;;17.57;100.00
47260;BME280;32999;52.412;4.890;2024-03-25T09:47:51;100705.13;;;16.40;100.00
47260;BME280;32999;52.412;4.890;2024-03-25T09:52:56;100652.63;;;15.94;100.00
47260;BME280;32999;52.412;4.890;2024-03-25T09:58:39;100696.94;;;17.18;100.00
47260;BME280;32999;52.412;4.890;2024-03-25T10:03:40;100698.28;;;16.85;100.00
47260;BME280;32999;52.412;4.890;2024-03-25T10:09:15;100676.25;;;17.82;100.00
47260;BME280;32999;52.412;4.890;2024-03-25T10:14:41;100675.66;;;18.03;100.00
47260;BME280;32999;52.412;4.890;2024-03-25T10:19:53;100672.69;;;16.76;100.00
47260;BME280;32999;52.412;4.890;2024-03-25T10:30:31;100663.25;;;17.79;100.00
47260;BME280;32999;52.412;4.890;2024-03-25T10:35:39;100666.66;;;17.27;97.73
47260;BME280;32999;52.412;4.890;2024-03-25T10:40:58;100659.22;;;16.88;100.00
47260;BME280;32999;52.412;4.890;2024-03-25T10:46:20;100661.13;;;17.11;100.00
47260;BME280;32999;52.412;4.890;2024-03-25T10:51:28;100646.69;;;17.05;100.00
47260;BME280;32999;52.412;4.890;2024-03-25T10:56:35;100590.19;;;17.39;100.00
47260;BME280;32999;52.412;4.890;2024-03-25T11:01:45;100639.88;;;17.73;100.00
47260;BME280;32999;52.412;4.890;2024-03-25T11:06:54;100595.38;;;18.99;93.21
47260;BME280;32999;52.412;4.890;2024-03-25T11:12:05;100621.63;;;18.08;84.53
47260;BME280;32999;52.412;4.890;2024-03-25T11:17:20;100637.09;;;16.67;95.57
47260;BME280;32999;52.412;4.890;2024-03-25T11:22:50;100617.19;;;15.36;100.00
47260;BME280;32999;52.412;4.890;2024-03-25T11:27:56;100523.47;;;15.08;100.00
47260;BME280;32999;52.412;4.890;2024-03-25T11:33:38;100500.75;;;15.04;100.00
47260;BME280;32999;52.412;4.890;2024-03-25T11:38:43;100545.19;;;15.97;100.00
47260;BME280;32999;52.412;4.890;2024-03-25T11:43:57;100507.44;;;15.68;96.56
47260;BME280;32999;52.412;4.890;2024-03-25T11:49:05;100442.47;;;16.64;94.85
47260;BME280;32999;52.412;4.890;2024-03-25T11:54:30;100538.47;;;18.77;70.61
47260;BME280;32999;52.412;4.890;2024-03-25T11:59:34;100499.50;;;16.79;80.18
47260;BME280;32999;52.412;4.890;2024-03-25T12:04:47;100567.09;;;14.91;97.27
47260;BME280;32999;52.412;4.890;2024-03-25T12:09:55;100544.06;;;16.70;90.22
47260;BME280;32999;52.412;4.890;2024-03-25T12:15:17;100555.53;;;16.12;96.88
47260;BME280;32999;52.412;4.890;2024-03-25T12:26:15;100486.78;;;18.45;72.51
47260;BME280;32999;52.412;4.890;2024-03-25T12:31:44;100446.22;;;20.03;57.16
47260;BME280;32999;52.412;4.890;2024-03-25T12:37:39;100344.09;;;17.40;59.18
47260;BME280;32999;52.412;4.890;2024-03-25T12:42:44;100502.81;;;18.18;65.74
47260;BME280;32999;52.412;4.890;2024-03-25T12:47:54;100324.03;;;19.02;55.07
47260;BME280;32999;52.412;4.890;2024-03-25T12:53:38;100444.81;;;18.81;54.11
47260;BME280;32999;52.412;4.890;2024-03-25T12:59:31;100463.22;;;19.45;56.69
47260;BME280;32999;52.412;4.890;2024-03-25T13:10:12;100442.31;;;16.59;62.46
47260;BME280;32999;52.412;4.890;2024-03-25T13:15:18;100488.09;;;16.65;65.07
47260;BME280;32999;52.412;4.890;2024-03-25T13:20:43;100496.84;;;16.38;68.33
47260;BME280;32999;52.412;4.890;2024-03-25T13:25:45;100485.91;;;16.09;69.49
47260;BME280;32999;52.412;4.890;2024-03-25T13:30:59;100458.63;;;16.41;62.87
47260;BME280;32999;52.412;4.890;2024-03-25T13:36:00;100399.06;;;17.91;56.42
47260;BME280;32999;52.412;4.890;2024-03-25T13:41:09;100381.34;;;17.83;55.64
47260;BME280;32999;52.412;4.890;2024-03-25T13:46:35;100417.53;;;17.65;55.98
47260;BME280;32999;52.412;4.890;2024-03-25T13:51:44;100401.03;;;17.22;56.75
47260;BME280;32999;52.412;4.890;2024-03-25T14:08:34;100314.78;;;15.35;56.25
47260;BME280;32999;52.412;4.890;2024-03-25T14:13:35;100384.25;;;15.75;60.25
47260;BME280;32999;52.412;4.890;2024-03-25T14:18:35;100356.63;;;15.49;57.78
47260;BME280;32999;52.412;4.890;2024-03-25T14:23:39;100276.56;;;14.85;52.97
47260;BME280;32999;52.412;4.890;2024-03-25T14:28:40;100271.53;;;14.77;54.01
47260;BME280;32999;52.412;4.890;2024-03-25T14:33:58;100333.22;;;14.90;56.54
47260;BME280;32999;52.412;4.890;2024-03-25T14:39:00;100359.06;;;14.36;61.81
47260;BME280;32999;52.412;4.890;2024-03-25T14:44:01;100359.91;;;13.37;99.06
47260;BME280;32999;52.412;4.890;2024-03-25T14:49:02;100360.19;;;13.22;100.00
47260;BME280;32999;52.412;4.890;2024-03-25T14:54:05;100254.19;;;12.75;100.00
47260;BME280;32999;52.412;4.890;2024-03-25T14:59:14;100333.03;;;13.06;100.00
47260;BME280;32999;52.412;4.890;2024-03-25T15:04:47;100318.22;;;12.97;100.00
47260;BME280;32999;52.412;4.890;2024-03-25T15:10:17;100325.00;;;12.99;100.00
47260;BME280;32999;52.412;4.890;2024-03-25T15:15:33;100331.13;;;12.75;100.00
47260;BME280;32999;52.412;4.890;2024-03-25T15:20:45;100231.81;;;12.05;100.00
47260;BME280;32999;52.412;4.890;2024-03-25T15:26:25;100279.38;;;13.06;100.00
47260;BME280;32999;52.412;4.890;2024-03-25T15:31:50;100285.13;;;12.71;100.00
47260;BME280;32999;52.412;4.890;2024-03-25T15:36:51;100289.38;;;12.41;100.00
47260;BME280;32999;52.412;4.890;2024-03-25T15:41:55;100215.59;;;11.61;100.00
47260;BME280;32999;52.412;4.890;2024-03-25T15:46:55;100232.28;;;11.63;100.00
47260;BME280;32999;52.412;4.890;2024-03-25T15:51:57;100283.06;;;12.15;100.00
47260;BME280;32999;52.412;4.890;2024-03-25T16:03:21;100259.03;;;11.69;100.00
47260;BME280;32999;52.412;4.890;2024-03-25T16:09:06;100255.34;;;11.77;100.00
47260;BME280;32999;52.412;4.890;2024-03-25T16:14:16;100142.19;;;11.04;100.00
47260;BME280;32999;52.412;4.890;2024-03-25T16:19:18;100234.94;;;11.76;100.00
47260;BME280;32999;52.412;4.890;2024-03-25T16:24:19;100243.78;;;11.63;100.00
47260;BME280;32999;52.412;4.890;2024-03-25T16:29:20;100243.81;;;11.43;100.00
47260;BME280;32999;52.412;4.890;2024-03-25T16:34:25;100223.03;;;11.45;100.00
47260;BME280;32999;52.412;4.890;2024-03-25T16:45:23;100126.97;;;10.98;100.00
47260;BME280;32999;52.412;4.890;2024-03-25T16:50:30;100194.44;;;11.33;100.00
47260;BME280;32999;52.412;4.890;2024-03-25T16:55:49;100196.06;;;11.53;100.00
47260;BME280;32999;52.412;4.890;2024-03-25T17:01:15;100177.13;;;11.42;100.00
47260;BME280;32999;52.412;4.890;2024-03-25T17:06:36;100187.22;;;10.80;100.00
47260;BME280;32999;52.412;4.890;2024-03-25T17:11:37;100181.22;;;10.59;100.00
47260;BME280;32999;52.412;4.890;2024-03-25T17:16:38;100113.25;;;10.07;100.00
47260;BME280;32999;52.412;4.890;2024-03-25T17:21:51;100185.56;;;10.79;100.00
47260;BME280;32999;52.412;4.890;2024-03-25T17:27:30;100184.72;;;10.72;100.00
47260;BME280;32999;52.412;4.890;2024-03-25T17:32:50;100183.31;;;10.89;100.00
47260;BME280;32999;52.412;4.890;2024-03-25T17:38:27;100176.34;;;11.02;100.00
47260;BME280;32999;52.412;4.890;2024-03-25T17:43:29;100180.03;;;10.94;100.00
47260;BME280;32999;52.412;4.890;2024-03-25T17:48:52;100182.91;;;10.86;100.00
47260;BME280;32999;52.412;4.890;2024-03-25T17:54:07;100185.38;;;10.87;100.00
47260;BME280;32999;52.412;4.890;2024-03-25T17:59:47;100167.69;;;10.93;100.00
47260;BME280;32999;52.412;4.890;2024-03-25T18:05:24;100179.59;;;10.90;100.00
47260;BME280;32999;52.412;4.890;2024-03-25T18:10:45;100079.84;;;10.24;100.00
47260;BME280;32999;52.412;4.890;2024-03-25T18:15:47;100169.75;;;10.84;100.00
47260;BME280;32999;52.412;4.890;2024-03-25T18:20:53;100160.66;;;10.59;100.00
47260;BME280;32999;52.412;4.890;2024-03-25T18:32:23;100164.31;;;10.32;100.00
47260;BME280;32999;52.412;4.890;2024-03-25T18:43:31;100159.91;;;10.11;100.00
47260;BME280;32999;52.412;4.890;2024-03-25T18:49:06;100154.41;;;10.26;100.00
47260;BME280;32999;52.412;4.890;2024-03-25T18:54:09;100144.91;;;10.16;100.00
47260;BME280;32999;52.412;4.890;2024-03-25T18:59:10;100167.91;;;10.11;100.00
47260;BME280;32999;52.412;4.890;2024-03-25T19:04:27;100145.72;;;10.10;100.00
47260;BME280;32999;52.412;4.890;2024-03-25T19:10:04;100177.53;;;10.05;100.00
47260;BME280;32999;52.412;4.890;2024-03-25T19:15:30;100073.38;;;9.38;100.00
47260;BME280;32999;52.412;4.890;2024-03-25T19:20:48;100047.91;;;9.01;100.00
47260;BME280;32999;52.412;4.890;2024-03-25T19:25:56;100129.44;;;9.51;100.00
47260;BME280;32999;52.412;4.890;2024-03-25T19:31:17;100145.94;;;9.68;100.00
47260;BME280;32999;52.412;4.890;2024-03-25T19:42:34;100137.38;;;9.44;100.00
47260;BME280;32999;52.412;4.890;2024-03-25T19:48:01;100135.00;;;9.56;100.00
47260;BME280;32999;52.412;4.890;2024-03-25T19:53:06;100128.53;;;9.37;100.00
47260;BME280;32999;52.412;4.890;2024-03-25T19:58:37;100120.81;;;9.21;100.00
47260;BME280;32999;52.412;4.890;2024-03-25T20:10:14;100113.50;;;9.30;100.00
47260;BME280;32999;52.412;4.890;2024-03-25T20:15:42;100114.22;;;9.17;100.00
47260;BME280;32999;52.412;4.890;2024-03-25T20:21:03;99998.44;;;8.57;100.00
47260;BME280;32999;52.412;4.890;2024-03-25T20:26:35;100097.16;;;9.05;100.00
47260;BME280;32999;52.412;4.890;2024-03-25T20:32:35;100094.59;;;9.25;100.00
47260;BME280;32999;52.412;4.890;2024-03-25T20:37:52;100104.59;;;9.16;100.00
47260;BME280;32999;52.412;4.890;2024-03-25T20:43:22;100098.09;;;9.25;100.00
47260;BME280;32999;52.412;4.890;2024-03-25T20:48:30;100102.03;;;9.29;100.00
47260;BME280;32999;52.412;4.890;2024-03-25T20:53:31;100102.91;;;9.36;100.00
47260;BME280;32999;52.412;4.890;2024-03-25T20:58:33;99985.69;;;8.52;100.00
47260;BME280;32999;52.412;4.890;2024-03-25T21:03:58;100097.38;;;9.38;100.00
47260;BME280;32999;52.412;4.890;2024-03-25T21:09:21;99967.91;;;8.32;100.00
47260;BME280;32999;52.412;4.890;2024-03-25T21:14:43;100106.00;;;9.46;100.00
47260;BME280;32999;52.412;4.890;2024-03-25T21:20:20;100088.44;;;9.24;100.00
47260;BME280;32999;52.412;4.890;2024-03-25T21:25:25;100090.00;;;9.46;100.00
47260;BME280;32999;52.412;4.890;2024-03-25T21:36:37;100065.41;;;9.10;100.00
47260;BME280;32999;52.412;4.890;2024-03-25T21:41:38;99929.56;;;8.26;100.00
47260;BME280;32999;52.412;4.890;2024-03-25T21:46:39;100054.50;;;9.05;100.00
47260;BME280;32999;52.412;4.890;2024-03-25T22:09:33;100023.25;;;8.92;100.00
47260;BME280;32999;52.412;4.890;2024-03-25T22:15:15;100018.94;;;8.91;100.00
47260;BME280;32999;52.412;4.890;2024-03-25T22:20:16;100015.53;;;9.04;100.00
47260;BME280;32999;52.412;4.890;2024-03-25T22:25:21;100003.25;;;8.75;100.00
47260;BME280;32999;52.412;4.890;2024-03-25T23:07:08;99957.75;;;8.42;100.00
47260;BME280;32999;52.412;4.890;2024-03-25T23:13:15;99950.88;;;8.54;100.00
47260;BME280;32999;52.412;4.890;2024-03-25T23:47:36;99915.84;;;8.01;100.00
47260;BME280;32999;52.412;4.890;2024-03-25T23:52:41;99796.75;;;7.26;100.00
47260;BME280;32999;52.412;4.890;2024-03-25T23:57:46;99898.50;;;8.05;100.00
